Terminal Aerodrome Forecast
Issued by NWS Jackson, MS

Home | Current Version | Previous Version | Text Only | Print | Product List | Glossary On
Versions: 1 2 3 4 5 6 7 8 9 10 11 12 13 14 15 16 17 18 19
000
FTUS44 KMEG 251121
TAFTUP
TAF
KTUP 251121Z 2512/2612 20007KT P6SM FEW100 BKN250
     FM251700 23010G16KT P6SM FEW060 BKN100
     FM252000 26010KT P6SM VCSH SCT035 OVC060
      TEMPO 2521/2601 -SHRA BKN035
     FM260100 29010KT P6SM VCSH OVC035
     FM260500 32012G18KT P6SM VCSH OVC030=

USA.gov is the U.S. government's official web portal to all federal, state and local government web resources and services.